Point Reyes Station, CA

10:09 PM PDT on August 30, 2014 (GMT -0700)
Sonoma County | Change Station
CLOSE
Current Station
Airport
Location: Santa Rosa,
Elevation: 125 ft
Nearby Weather Stations

Elev 125 ft 38.50 °N, 122.81 °W | Updated 16 minutes ago

Clear
Clear
74 °F
Feels Like 74 °F
N
4
Wind Variable Wind from WSW

Today
High -- | Low -- °F
--% Chance of Precip.
Yesterday
High -- | Low -- °F
Precip. -- in
6:39 AM 7:43 PM
Waxing Crescent, 27% visible
Pressure 29.81 in
Visibility 10.0 miles
Clouds Clear
Dew Point 51 °F
Humidity 45%
Rainfall 0.00 in
Snow Depth Not available.
UV 0 out of 12
Pollen 7.70 out of 12
Air Quality Not available.
Flu Activity Not available.
METAR KSTS 310453Z 25003KT 10SM CLR 23/11 A2983 RMK AO2 SLP095 T02330106

More Conditions Fewer Conditions

Pressure 29.81 in
Visibility 10.0 miles
Clouds Clear
Dew Point 51 °F
Humidity 45%
Rainfall 0.00 in
Snow Depth Not available.
UV 0 out of 12
Pollen 7.70 out of 12
Air Quality Not available.
Flu Activity Not available.
METAR KSTS 310453Z 25003KT 10SM CLR 23/11 A2983 RMK AO2 SLP095 T02330106

More Conditions Fewer Conditions

10-Day Weather Forecast

Almanac

Astronomy

Aug. 30, 2014 Rise Set
Actual Time 6:39 AM PDT 7:43 PM PDT
Civil Twilight 6:12 AM PDT 8:10 PM PDT
Nautical Twilight 5:40 AM PDT 8:42 PM PDT
Astronomical Twilight 5:06 AM PDT 9:16 PM PDT
Moon 11:27 AM PDT (8/30) 10:26 PM PDT (8/30)
Length of Visible Light 13h 58m
Length of Day
13h 04m
Tomorrow will be 2m 19s shorter.
Waxing Crescent, 27% of the Moon is Illuminated
Aug 31
Waxing Crescent
Sep 2
First Quarter
Sep 8
Full
Sep 15
Last Quarter
Sep 24
New

Yesterday's Extremes

State Highs State Lows

Community

WunderPhotos

Upload Photos

1,748,786 photos uploaded!

Nearby

Snow Depth

Station Depth Elevation
Echo Peak 1 in 7800 ft
CSS Lab 2 in 6900 ft
Rubicon #2 0 in 7500 ft
Fallen Leaf 0 in 6300 ft
Blue Lakes 0 in 8000 ft

Earthquake Activity

City Distance Mag. Time & Date
Gonzales, California 131 miles 2.7 9:48 PM PDT
2014-08-30
Ridgemark, California 125 miles 3.4 4:32 PM PDT
2014-08-29
The Geysers, California 52 miles 2.7 2:53 PM PDT
2014-08-29
Ridgemark, California 125 miles 3.0 2:44 PM PDT
2014-08-29
Minimum magnitude displayed is 2.5.

Coastal Water Temperatures

Place Temperature
Point Reyes, CA 64.0 °F
Arena Cove, CA 55.9 °F
San Francisco, CA 64.9 °F
Richmond, CA 68.0 °F

Nearby Weather Stations